createdAt,value
2023-05-24T00:01:25.577Z,96957.78
2023-05-24T00:03:53.516Z,96954.53
2023-05-24T00:06:21.451Z,96948.06
2023-05-24T00:08:50.483Z,96954.69
2023-05-24T00:11:18.121Z,96942.34
2023-05-24T00:13:45.820Z,96950.63
2023-05-24T00:16:13.527Z,96955.25
2023-05-24T00:18:41.204Z,96942.31
2023-05-24T00:21:09.174Z,96947.53
2023-05-24T00:23:38.647Z,96940.47
2023-05-24T00:26:07.601Z,96939.25
2023-05-24T00:28:35.666Z,96940.44
2023-05-24T00:31:03.316Z,96945.88
2023-05-24T00:33:30.932Z,96934.94
2023-05-24T00:35:58.593Z,96937.38
2023-05-24T00:38:27.364Z,96937.56
2023-05-24T00:40:56.402Z,96943.44
2023-05-24T00:43:25.418Z,96945.25
2023-05-24T00:46:13.247Z,96940.59
2023-05-24T00:48:41.256Z,96939.78
2023-05-24T00:51:08.983Z,96941.78
2023-05-24T00:53:38.310Z,96938.53
2023-05-24T00:56:07.504Z,96936.91
2023-05-24T00:58:36.500Z,96937.94
2023-05-24T01:01:04.972Z,96938.09
2023-05-24T01:03:33.837Z,96934.06
2023-05-24T01:06:06.045Z,96937.44
2023-05-24T01:08:44.624Z,96933.59
2023-05-24T01:11:23.225Z,96938.22
2023-05-24T01:13:59.726Z,96941.22
2023-05-24T01:16:37.869Z,96931.53
2023-05-24T01:19:17.909Z,96927.09
2023-05-24T01:21:58.970Z,96927.94
2023-05-24T01:24:31.946Z,96917.25
2023-05-24T01:27:08.517Z,96917.06
2023-05-24T01:29:36.788Z,96917.88
2023-05-24T01:32:04.949Z,96915.03
2023-05-24T01:34:32.577Z,96918.63
2023-05-24T01:37:00.187Z,96917.38
2023-05-24T01:39:30.500Z,96911.91
2023-05-24T01:42:09.901Z,96918.19
2023-05-24T01:44:44.018Z,96914.53
2023-05-24T01:47:26.664Z,96909.31
2023-05-24T01:49:58.149Z,96912.94
2023-05-24T01:52:32.596Z,96911.66
2023-05-24T01:55:03.965Z,96912.03
2023-05-24T01:57:35.413Z,96917.66
2023-05-24T02:00:06.014Z,96921.66
2023-05-24T02:02:33.871Z,96917.03
2023-05-24T02:05:01.489Z,96916.03
2023-05-24T02:07:29.106Z,96919.03
2023-05-24T02:09:56.752Z,96918.19
2023-05-24T02:12:24.343Z,96913.31
2023-05-24T02:14:54.634Z,96920.13
2023-05-24T02:17:22.588Z,96919.88
2023-05-24T02:19:50.219Z,96916.22
2023-05-24T02:22:17.828Z,96921.22
2023-05-24T02:24:45.471Z,96923.38
2023-05-24T02:27:13.043Z,96925.56
2023-05-24T02:29:41.884Z,96926.56
2023-05-24T02:32:10.811Z,96933.78
2023-05-24T02:34:38.403Z,96928.31
2023-05-24T02:37:06.377Z,96929.69
2023-05-24T02:39:33.974Z,96929.88
2023-05-24T02:42:01.603Z,96940.50
2023-05-24T02:44:29.208Z,96930.03
2023-05-24T02:46:56.796Z,96935.09
2023-05-24T02:49:25.776Z,96927.00
2023-05-24T02:51:53.404Z,96935.66
2023-05-24T02:54:21.072Z,96930.59
2023-05-24T02:56:48.884Z,96933.41
2023-05-24T02:59:16.642Z,96925.38
2023-05-24T03:01:44.305Z,96928.94
2023-05-24T03:04:11.961Z,96930.72
2023-05-24T03:06:41.058Z,96931.63
2023-05-24T03:09:09.200Z,96930.44
2023-05-24T03:11:36.792Z,96930.78
2023-05-24T03:14:04.344Z,96935.94
2023-05-24T03:16:31.990Z,96934.91
2023-05-24T03:19:00.331Z,96933.00
2023-05-24T03:21:27.901Z,96938.81
2023-05-24T03:23:57.092Z,96936.13
2023-05-24T03:26:24.666Z,96935.22
2023-05-24T03:28:54.314Z,96938.19
2023-05-24T03:31:24.204Z,96935.16
2023-05-24T03:33:52.058Z,96936.31
2023-05-24T03:36:20.674Z,96940.91
2023-05-24T03:38:48.301Z,96933.06
2023-05-24T03:41:17.279Z,96933.69
2023-05-24T03:43:45.431Z,96936.94
2023-05-24T03:46:13.035Z,96937.94
2023-05-24T03:48:40.739Z,96937.78
2023-05-24T03:51:09.252Z,96932.34
2023-05-24T03:53:36.827Z,96936.13
2023-05-24T03:56:04.552Z,96935.88
2023-05-24T03:58:33.478Z,96928.59
2023-05-24T04:01:01.790Z,96934.16
2023-05-24T04:03:29.426Z,96933.19
2023-05-24T04:05:57.002Z,96936.59
2023-05-24T04:08:24.566Z,96934.97
2023-05-24T04:10:52.122Z,96929.75
2023-05-24T04:13:19.759Z,96930.56
2023-05-24T04:15:48.747Z,96934.63
2023-05-24T04:18:16.821Z,96931.84
2023-05-24T04:20:44.705Z,96924.97
2023-05-24T04:23:12.559Z,96925.22
2023-05-24T04:25:40.252Z,96923.88
2023-05-24T04:28:08.445Z,96932.34
2023-05-24T04:30:36.797Z,96929.09
2023-05-24T04:33:05.955Z,96929.47
2023-05-24T04:35:33.595Z,96928.22
2023-05-24T04:38:01.137Z,96933.81
2023-05-24T04:40:28.743Z,96931.56
2023-05-24T04:42:56.402Z,96929.66
2023-05-24T04:45:23.979Z,96932.28
2023-05-24T04:47:51.632Z,96934.25
2023-05-24T04:50:20.589Z,96933.63
2023-05-24T04:52:48.198Z,96937.25
2023-05-24T04:55:15.835Z,96937.25
2023-05-24T04:57:43.410Z,96940.66
2023-05-24T05:00:12.022Z,96944.72
2023-05-24T05:02:39.807Z,96942.94
2023-05-24T05:05:08.274Z,96942.09
2023-05-24T05:07:38.469Z,96944.53
2023-05-24T05:10:07.112Z,96945.72
2023-05-24T05:12:34.662Z,96946.34
2023-05-24T05:15:02.360Z,96955.81
2023-05-24T05:17:29.957Z,96963.00
2023-05-24T05:19:57.865Z,96958.31
2023-05-24T05:22:25.527Z,96958.84
2023-05-24T05:24:54.427Z,96959.22
2023-05-24T05:27:22.013Z,96955.97
2023-05-24T05:29:49.602Z,96958.94
2023-05-24T05:32:17.378Z,96957.16
2023-05-24T05:34:45.227Z,96954.00
2023-05-24T05:37:12.798Z,96954.63
2023-05-24T05:39:40.999Z,96942.19
2023-05-24T05:42:09.968Z,96946.25
2023-05-24T05:44:37.521Z,96948.16
2023-05-24T05:47:07.356Z,96944.00
2023-05-24T05:49:36.298Z,96937.78
2023-05-24T05:52:04.025Z,96935.97
2023-05-24T05:54:31.606Z,96926.97
2023-05-24T05:57:01.346Z,96942.72
2023-05-24T05:59:30.626Z,96932.44
2023-05-24T06:01:58.172Z,96937.25
2023-05-24T06:04:25.760Z,96936.53
2023-05-24T06:06:53.433Z,96942.47
2023-05-24T06:09:21.030Z,96951.00
2023-05-24T06:11:48.638Z,96939.47
2023-05-24T06:14:18.502Z,96944.09
2023-05-24T06:16:47.965Z,96943.25
2023-05-24T06:19:16.512Z,96939.81
2023-05-24T06:21:47.800Z,96950.75
2023-05-24T06:24:17.881Z,96946.94
2023-05-24T06:26:45.525Z,96957.56
2023-05-24T06:29:13.913Z,96948.13
2023-05-24T06:31:41.673Z,96945.16
2023-05-24T06:34:10.600Z,96951.63
2023-05-24T06:36:41.486Z,96946.41
2023-05-24T06:39:10.156Z,96954.06
2023-05-24T06:41:38.954Z,96956.19
2023-05-24T06:44:06.675Z,96958.00
2023-05-24T06:46:34.336Z,96965.28
2023-05-24T06:49:02.207Z,96964.91
2023-05-24T06:51:33.428Z,96967.19
2023-05-24T06:54:01.107Z,96966.16
2023-05-24T06:56:28.836Z,96967.81
2023-05-24T06:58:56.783Z,96974.38
2023-05-24T07:01:24.421Z,96977.63
2023-05-24T07:03:52.111Z,96969.78
2023-05-24T07:06:19.752Z,96973.66
2023-05-24T07:08:48.648Z,96988.97
2023-05-24T07:11:16.419Z,96998.72
2023-05-24T07:13:44.039Z,96998.97
2023-05-24T07:16:12.784Z,96992.78
2023-05-24T07:18:41.765Z,96993.03
2023-05-24T07:21:09.738Z,96990.88
2023-05-24T07:23:38.752Z,96993.66
2023-05-24T07:26:09.046Z,97000.88
2023-05-24T07:28:37.899Z,96992.03
2023-05-24T07:31:06.149Z,96995.72
2023-05-24T07:33:34.136Z,96995.41
2023-05-24T07:36:02.681Z,97005.16
2023-05-24T07:38:31.053Z,97011.28
2023-05-24T07:41:00.987Z,97010.91
2023-05-24T07:43:30.981Z,97013.38
2023-05-24T07:45:58.687Z,97013.78
2023-05-24T07:48:26.735Z,97016.06
2023-05-24T07:50:55.014Z,97013.06
2023-05-24T07:53:23.367Z,97018.53
2023-05-24T07:55:51.714Z,97025.66
2023-05-24T07:58:19.512Z,97021.69
2023-05-24T08:00:48.425Z,97024.94
2023-05-24T08:03:17.423Z,97020.50
2023-05-24T08:05:45.382Z,97028.63
2023-05-24T08:08:13.970Z,97020.13
2023-05-24T08:10:41.846Z,97024.19
2023-05-24T08:13:09.502Z,97021.75
2023-05-24T08:15:37.079Z,97018.56
2023-05-24T08:18:06.078Z,97023.44
2023-05-24T08:20:36.122Z,97025.69
2023-05-24T08:23:03.842Z,97024.44
2023-05-24T08:25:31.549Z,97034.72
2023-05-24T08:27:59.102Z,97036.16
2023-05-24T08:30:26.668Z,97035.19
2023-05-24T08:32:54.255Z,97034.97
2023-05-24T08:35:23.260Z,97036.78
2023-05-24T08:37:54.714Z,97040.78
2023-05-24T08:40:24.372Z,97041.41
2023-05-24T08:42:58.517Z,97036.41
2023-05-24T08:45:41.095Z,97037.66
2023-05-24T08:48:18.390Z,97043.34
2023-05-24T08:50:54.379Z,97045.78
2023-05-24T08:53:26.176Z,97047.16
2023-05-24T08:55:57.098Z,97044.53
2023-05-24T08:58:26.765Z,97042.88
2023-05-24T09:00:55.718Z,97032.41
2023-05-24T09:03:29.847Z,97032.06
2023-05-24T09:06:02.396Z,97032.84
2023-05-24T09:08:38.133Z,97038.34
2023-05-24T09:11:09.182Z,97041.41
2023-05-24T09:13:38.663Z,97041.41
2023-05-24T09:16:27.470Z,97044.03
2023-05-24T09:19:10.649Z,97057.13
2023-05-24T09:21:49.322Z,97054.78
2023-05-24T09:24:25.856Z,97054.78
2023-05-24T09:27:05.186Z,97060.19
2023-05-24T09:29:39.351Z,97057.75
2023-05-24T09:32:10.219Z,97053.50
2023-05-24T09:34:43.033Z,97057.75
2023-05-24T09:37:18.349Z,97051.88
2023-05-24T09:39:50.335Z,97052.69
2023-05-24T09:42:24.618Z,97045.84
2023-05-24T09:45:08.920Z,97057.47
2023-05-24T09:47:39.146Z,97060.66
2023-05-24T09:50:19.738Z,97058.59
2023-05-24T09:52:50.402Z,97055.56
2023-05-24T09:55:20.863Z,97056.53
2023-05-24T09:57:55.772Z,97051.69
2023-05-24T10:00:28.272Z,97055.34
2023-05-24T10:03:04.461Z,97067.28
2023-05-24T10:05:33.303Z,97063.66
2023-05-24T10:08:10.480Z,97066.75
2023-05-24T10:10:46.502Z,97068.78
2023-05-24T10:13:18.052Z,97069.59
2023-05-24T10:15:53.052Z,97063.09
2023-05-24T10:18:27.290Z,97064.34
2023-05-24T10:20:59.513Z,97070.84
2023-05-24T10:23:40.467Z,97068.84
2023-05-24T10:26:11.743Z,97062.81
2023-05-24T10:28:43.865Z,97060.19
2023-05-24T10:31:19.124Z,97059.22
2023-05-24T10:33:55.664Z,97056.59
2023-05-24T10:36:31.230Z,97054.50
2023-05-24T10:39:04.907Z,97042.94
2023-05-24T10:41:44.830Z,97037.28
2023-05-24T10:44:17.663Z,97040.53
2023-05-24T10:47:07.862Z,97041.75
2023-05-24T10:49:43.972Z,97042.16
2023-05-24T10:52:19.237Z,97039.28
2023-05-24T10:55:17.047Z,97038.66
2023-05-24T10:57:48.169Z,97042.53
2023-05-24T11:03:24.005Z,97040.59
2023-05-24T11:06:04.340Z,97038.16
2023-05-24T11:08:35.663Z,97036.53
2023-05-24T11:11:25.666Z,97043.34
2023-05-24T11:13:59.011Z,97037.28
2023-05-24T11:16:40.954Z,97035.66
2023-05-24T11:19:24.074Z,97043.34
2023-05-24T11:21:59.705Z,97042.53
2023-05-24T11:24:32.475Z,97039.47
2023-05-24T11:27:09.492Z,97037.59
2023-05-24T11:29:47.970Z,97029.50
2023-05-24T11:32:25.676Z,97022.56
2023-05-24T11:34:53.588Z,97026.53
2023-05-24T11:37:38.624Z,97026.19
2023-05-24T11:40:16.754Z,97030.84
2023-05-24T11:42:49.897Z,97030.59
2023-05-24T11:45:23.234Z,97031.59
2023-05-24T11:47:58.928Z,97032.78
2023-05-24T11:50:45.712Z,97040.63
2023-05-24T11:53:22.966Z,97046.88
2023-05-24T11:55:54.837Z,97036.59
2023-05-24T11:58:46.662Z,97039.03
2023-05-24T12:01:28.866Z,97040.63
2023-05-24T12:03:57.594Z,97037.84
2023-05-24T12:06:35.596Z,97042.88
2023-05-24T12:09:08.930Z,97038.47
2023-05-24T12:11:41.850Z,97044.69
2023-05-24T12:14:19.485Z,97042.88
2023-05-24T12:16:55.290Z,97032.59
2023-05-24T12:19:33.256Z,97041.50
2023-05-24T12:22:03.225Z,97041.78
2023-05-24T12:24:32.762Z,97038.94
2023-05-24T12:27:11.140Z,97041.63
2023-05-24T12:29:45.975Z,97039.06
2023-05-24T12:32:17.082Z,97043.00
2023-05-24T12:34:51.698Z,97036.31
2023-05-24T12:37:22.089Z,97036.41
2023-05-24T12:39:59.214Z,97030.03
2023-05-24T12:42:31.720Z,97032.13
2023-05-24T12:45:04.948Z,97023.56
2023-05-24T12:47:37.040Z,97023.00
2023-05-24T12:50:13.431Z,97017.03
2023-05-24T12:52:49.079Z,97019.19
2023-05-24T12:55:24.350Z,97009.13
2023-05-24T12:57:59.230Z,97003.97
2023-05-24T13:00:34.555Z,97004.63
2023-05-24T13:03:04.282Z,97004.47
2023-05-24T13:05:37.148Z,96998.00
2023-05-24T13:08:07.373Z,97003.69
2023-05-24T13:10:37.737Z,97000.25
2023-05-24T13:13:16.758Z,96983.09
2023-05-24T13:15:53.221Z,96987.53
2023-05-24T13:18:31.735Z,96987.75
2023-05-24T13:21:12.758Z,96972.38
2023-05-24T13:23:45.377Z,96973.19
2023-05-24T13:26:17.653Z,96973.00
2023-05-24T13:29:08.081Z,96973.97
2023-05-24T13:31:50.840Z,96966.91
2023-05-24T13:34:27.666Z,96961.25
2023-05-24T13:37:02.854Z,96960.19
2023-05-24T13:39:37.622Z,96949.47
2023-05-24T13:42:07.262Z,96952.09
2023-05-24T13:44:41.398Z,96951.69
2023-05-24T13:47:23.718Z,96953.50
2023-05-24T13:50:05.400Z,96958.97
2023-05-24T13:52:44.862Z,96958.97
2023-05-24T13:55:25.893Z,96954.13
2023-05-24T13:57:56.156Z,96951.88
2023-05-24T14:00:26.366Z,96952.91
2023-05-24T14:02:58.502Z,96955.50
2023-05-24T14:05:35.371Z,96944.97
2023-05-24T14:08:08.018Z,96934.78
2023-05-24T14:10:42.100Z,96958.47
2023-05-24T14:13:36.806Z,96956.25
2023-05-24T14:16:13.069Z,96953.63
2023-05-24T14:18:47.970Z,96953.03
2023-05-24T14:21:27.049Z,96943.31
2023-05-24T14:23:58.003Z,96942.13
2023-05-24T14:26:30.354Z,96942.16
2023-05-24T14:29:03.906Z,96938.09
2023-05-24T14:31:43.886Z,96936.69
2023-05-24T14:34:19.786Z,96938.88
2023-05-24T14:36:48.495Z,96937.69
2023-05-24T14:39:16.077Z,96937.06
2023-05-24T14:41:43.654Z,96940.66
2023-05-24T14:44:11.252Z,96932.78
2023-05-24T14:46:39.043Z,96940.06
2023-05-24T14:49:06.693Z,96939.25
2023-05-24T14:51:35.601Z,96947.16
2023-05-24T14:54:03.207Z,96944.94
2023-05-24T14:56:30.796Z,96947.34
2023-05-24T14:58:59.351Z,96944.50
2023-05-24T15:01:27.218Z,96952.19
2023-05-24T15:03:54.948Z,96945.31
2023-05-24T15:06:23.002Z,96936.00
2023-05-24T15:08:52.504Z,96943.09
2023-05-24T15:11:20.142Z,96940.47
2023-05-24T15:13:47.712Z,96927.91
2023-05-24T15:16:15.282Z,96927.91
2023-05-24T15:18:42.917Z,96932.38
2023-05-24T15:21:10.595Z,96933.53
2023-05-24T15:23:38.275Z,96938.00
2023-05-24T15:26:08.183Z,96938.22
2023-05-24T15:28:35.823Z,96926.25
2023-05-24T15:31:03.870Z,96924.00
2023-05-24T15:33:32.612Z,96927.84
2023-05-24T15:36:00.417Z,96924.41
2023-05-24T15:38:27.985Z,96928.84
2023-05-24T15:40:55.548Z,96927.84
2023-05-24T15:43:24.414Z,96922.16
2023-05-24T15:45:51.962Z,96915.88
2023-05-24T15:48:19.547Z,96919.72
2023-05-24T15:51:25.652Z,96922.34
2023-05-24T15:53:34.673Z,96922.94
2023-05-24T15:56:02.207Z,96925.75
2023-05-24T15:58:31.080Z,96917.63
2023-05-24T16:00:58.630Z,96925.75
2023-05-24T16:03:26.282Z,96923.31
2023-05-24T16:05:53.823Z,96918.28
2023-05-24T16:08:27.344Z,96924.94
2023-05-24T16:10:54.947Z,96926.53
2023-05-24T16:13:22.635Z,96925.53
2023-05-24T16:15:52.112Z,96926.75
2023-05-24T16:18:22.238Z,96921.31
2023-05-24T16:20:50.904Z,96917.72
2023-05-24T16:23:19.250Z,96923.38
2023-05-24T16:25:46.962Z,96919.16
2023-05-24T16:28:14.535Z,96929.44
2023-05-24T16:30:42.279Z,96919.50
2023-05-24T16:33:11.348Z,96925.38
2023-05-24T16:35:38.897Z,96921.75
2023-05-24T16:38:06.442Z,96913.25
2023-05-24T16:40:33.993Z,96915.28
2023-05-24T16:43:01.553Z,96922.97
2023-05-24T16:45:29.144Z,96918.50
2023-05-24T16:47:56.743Z,96922.16
2023-05-24T16:50:25.829Z,96923.97
2023-05-24T16:52:53.333Z,96927.41
2023-05-24T16:55:20.995Z,96924.19
2023-05-24T16:57:48.573Z,96930.03
2023-05-24T17:00:16.789Z,96927.41
2023-05-24T17:02:44.650Z,96933.09
2023-05-24T17:05:12.423Z,96926.66
2023-05-24T17:07:41.328Z,96921.81
2023-05-24T17:10:09.823Z,96924.25
2023-05-24T17:12:37.377Z,96921.00
2023-05-24T17:15:06.804Z,96925.69
2023-05-24T17:17:34.614Z,96927.13
2023-05-24T17:20:02.282Z,96918.03
2023-05-24T17:22:29.867Z,96921.91
2023-05-24T17:24:58.773Z,96915.44
2023-05-24T17:27:26.291Z,96920.72
2023-05-24T17:29:53.833Z,96921.94
2023-05-24T17:32:21.500Z,96924.81
2023-05-24T17:34:49.020Z,96932.13
2023-05-24T17:37:16.593Z,96935.97
2023-05-24T17:39:44.114Z,96931.25
2023-05-24T17:42:13.054Z,96941.00
2023-05-24T17:44:40.672Z,96948.69
2023-05-24T17:47:08.261Z,96944.06
2023-05-24T17:49:35.870Z,96953.56
2023-05-24T17:52:03.447Z,96957.00
2023-05-24T17:54:31.024Z,96960.84
2023-05-24T17:56:58.586Z,96960.44
2023-05-24T17:59:27.503Z,96966.09
2023-05-24T18:01:55.205Z,96965.91
2023-05-24T18:04:22.816Z,96970.94
2023-05-24T18:06:50.416Z,96972.59
2023-05-24T18:09:18.066Z,96968.53
2023-05-24T18:11:45.737Z,96978.44
2023-05-24T18:14:13.379Z,96976.19
2023-05-24T18:16:42.798Z,96987.91
2023-05-24T18:19:10.556Z,96976.59
2023-05-24T18:21:38.133Z,96985.28
2023-05-24T18:24:05.758Z,96984.25
2023-05-24T18:26:33.332Z,96990.72
2023-05-24T18:29:00.932Z,96989.47
2023-05-24T18:31:28.623Z,96988.06
2023-05-24T18:33:58.134Z,97002.22
2023-05-24T18:36:27.032Z,96997.34
2023-05-24T18:38:54.596Z,97003.00
2023-05-24T18:41:22.220Z,97002.41
2023-05-24T18:43:49.773Z,97000.38
2023-05-24T18:46:17.636Z,97002.38
2023-05-24T18:48:45.376Z,97004.38
2023-05-24T18:51:14.479Z,97003.78
2023-05-24T18:53:42.086Z,97006.22
2023-05-24T18:56:09.628Z,97015.06
2023-05-24T18:58:37.256Z,97014.03
2023-05-24T19:01:04.999Z,97016.41
2023-05-24T19:03:32.638Z,97018.44
2023-05-24T19:06:00.258Z,97019.84
2023-05-24T19:08:29.139Z,97019.19
2023-05-24T19:10:56.737Z,97021.97
2023-05-24T19:13:24.324Z,97022.34
2023-05-24T19:15:53.585Z,97017.50
2023-05-24T19:18:21.612Z,97028.00
2023-05-24T19:20:49.517Z,97022.94
2023-05-24T19:23:17.215Z,97030.41
2023-05-24T19:25:49.994Z,97031.53
2023-05-24T19:28:18.188Z,97038.97
2023-05-24T19:30:45.777Z,97037.84
2023-05-24T19:33:13.405Z,97028.91
2023-05-24T19:35:41.082Z,97033.66
2023-05-24T19:38:08.764Z,97039.44
2023-05-24T19:40:36.288Z,97040.75
2023-05-24T19:43:05.179Z,97041.41
2023-05-24T19:45:32.731Z,97040.72
2023-05-24T19:48:00.736Z,97041.84
2023-05-24T19:50:31.033Z,97039.97
2023-05-24T19:52:58.893Z,97043.50
2023-05-24T19:55:26.469Z,97046.88
2023-05-24T19:57:54.015Z,97040.56
2023-05-24T20:00:22.984Z,97050.16
2023-05-24T20:02:50.636Z,97051.69
2023-05-24T20:05:18.521Z,97052.41
2023-05-24T20:07:46.070Z,97044.69
2023-05-24T20:10:13.771Z,97053.91
2023-05-24T20:12:42.587Z,97045.75
2023-05-24T20:15:12.370Z,97044.41
2023-05-24T20:17:41.392Z,97050.41
2023-05-24T20:20:09.782Z,97045.50
2023-05-24T20:22:37.379Z,97043.06
2023-05-24T20:25:05.786Z,97049.13
2023-05-24T20:27:33.484Z,97039.00
2023-05-24T20:30:01.215Z,97042.00
2023-05-24T20:32:28.799Z,97052.28
2023-05-24T20:34:57.678Z,97048.31
2023-05-24T20:37:25.373Z,97044.88
2023-05-24T20:39:52.950Z,97058.25
2023-05-24T20:42:20.490Z,97048.41
2023-05-24T21:14:29.373Z,97045.06
2023-05-24T21:17:12.151Z,97045.25
